KANQ/ANQ METAR and TAF weather

Enter ICAO airport designator
Station Type Date Time Source
KANQ METAR 2020/07/10 15:15 UTC NOAA

KANQ 101515Z AUTO 18005KT 1/2SM -RA SCT002 OVC013 24/23 A2978 RMK AO2 LTG DSNT NE


Station Type Date Time Source
KANQ Decoded METAR 2020/07/10 15:15 UTC NOAA

Station name not available
Jul 10, 2020 - 11:15 AM EDT / 2020.07.10 1515 UTC
Wind: from the S (180 degrees) at 6 MPH (5 KT):0
Visibility: 1/2 mile(s):0
Sky conditions: overcast
Weather: light rain; Lightning observed
Temperature: 75 F (24 C)
Dew Point: 73 F (23 C)
Relative Humidity: 94%
Pressure (altimeter): 29.78 in. Hg (1008 hPa)
ob: KANQ 101515Z AUTO 18005KT 1/2SM -RA SCT002 OVC013 24/23 A2978 RMK AO2 LTG DSNT NE
cycle: 15

Station Type Date Time Source
KANQ TAF UTC NOAA

Error!

Example: see airport list